Time;durP1;ratioP1;P1;durP2;ratioP2;P2;SDS_P1;SDS_P2;PMS_P1;PMS_P2;Temp;Humidity;BMP_temperature;BMP_pressure;BME280_temperature;BME280_humidity;BME280_pressure;Samples;Min_cycle;Max_cycle;Signal;HPM_P1;HPM_P2
2021/03/23 00:01:42;;;;;;;61.63;33.95;;;;;;;0.45;72.76;98958.56;2230857;79;21288;-82
2021/03/23 00:04:44;;;;;;;60.12;30.57;;;;;;;0.43;72.76;98957.04;2230861;79;21724;-82
2021/03/23 00:07:46;;;;;;;64.07;31.62;;;;;;;0.46;72.72;98965.86;2230641;80;21293;-82
2021/03/23 00:10:47;;;;;;;50.58;27.65;;;;;;;0.47;72.69;98959.77;2230498;80;21292;-82
2021/03/23 00:13:49;;;;;;;59.45;32.90;;;;;;;0.50;72.65;98951.34;2230510;80;21150;-83
2021/03/23 00:16:50;;;;;;;55.35;28.92;;;;;;;0.51;72.59;98957.31;2230809;80;21280;-82
2021/03/23 00:19:52;;;;;;;62.55;32.33;;;;;;;0.53;72.50;98960.12;2230357;80;21146;-82
2021/03/23 00:22:53;;;;;;;56.23;28.62;;;;;;;0.52;72.47;98958.95;2230486;80;21146;-82
2021/03/23 00:25:55;;;;;;;59.90;29.87;;;;;;;0.53;72.46;98964.46;2230180;80;21158;-81
2021/03/23 00:28:57;;;;;;;56.80;28.57;;;;;;;0.54;72.34;98959.19;2230139;79;21154;-82
2021/03/23 00:31:59;;;;;;;56.53;30.27;;;;;;;0.56;72.27;98957.36;2230463;80;21190;-81
2021/03/23 00:35:00;;;;;;;56.35;30.23;;;;;;;0.53;72.31;98956.73;2230536;80;21249;-82
2021/03/23 00:38:02;;;;;;;55.30;28.73;;;;;;;0.53;72.32;98954.16;2230552;79;21103;-81
2021/03/23 00:41:03;;;;;;;50.25;27.10;;;;;;;0.53;72.33;98958.02;2230785;79;21165;-81
2021/03/23 00:44:05;;;;;;;57.13;30.57;;;;;;;0.52;72.32;98966.69;2230687;80;21625;-81
2021/03/23 00:47:07;;;;;;;58.33;30.43;;;;;;;0.53;72.21;98969.15;2230745;80;21165;-81
2021/03/23 00:50:08;;;;;;;47.95;26.00;;;;;;;0.59;72.08;98961.92;2230558;80;21713;-82
2021/03/23 00:53:09;;;;;;;55.00;28.02;;;;;;;0.62;72.03;98960.41;2230736;80;21167;-82
2021/03/23 00:56:11;;;;;;;55.95;28.80;;;;;;;0.61;71.90;98957.48;2230736;78;21316;-82
2021/03/23 00:59:13;;;;;;;51.25;28.73;;;;;;;0.63;71.95;98959.47;2230586;79;21174;-82
2021/03/23 01:02:14;;;;;;;57.50;28.80;;;;;;;0.66;71.98;98963.13;2233892;80;21150;-83
2021/03/23 01:05:16;;;;;;;50.50;27.25;;;;;;;0.68;71.87;98959.50;2232523;79;21264;-82
2021/03/23 01:08:17;;;;;;;52.83;27.48;;;;;;;0.70;71.82;98956.81;2230787;80;21288;-82
2021/03/23 01:11:19;;;;;;;53.48;27.73;;;;;;;0.72;71.88;98956.23;2230501;80;21138;-82
2021/03/23 01:14:21;;;;;;;48.58;24.87;;;;;;;0.75;71.74;98951.69;2230716;80;21796;-81
2021/03/23 01:17:22;;;;;;;49.53;26.52;;;;;;;0.74;71.56;98944.89;2230820;80;21138;-82
2021/03/23 01:20:24;;;;;;;51.55;26.23;;;;;;;0.79;71.60;98943.25;2230678;79;21131;-82
2021/03/23 01:23:26;;;;;;;49.83;26.60;;;;;;;0.81;71.41;98938.33;2234402;80;21252;-82
2021/03/23 01:26:27;;;;;;;43.30;23.60;;;;;;;0.86;71.51;98931.56;2233559;80;21300;-81
2021/03/23 01:29:29;;;;;;;50.43;27.52;;;;;;;0.91;71.21;98938.48;2231039;79;21151;-82
2021/03/23 01:32:31;;;;;;;54.25;25.77;;;;;;;0.93;71.10;98938.39;2230358;79;21181;-82
2021/03/23 01:35:32;;;;;;;51.55;28.77;;;;;;;0.93;71.08;98944.36;2230665;79;21312;-82
2021/03/23 01:38:34;;;;;;;52.88;26.20;;;;;;;0.94;71.06;98941.31;2230402;79;21134;-82
2021/03/23 01:41:36;;;;;;;47.00;24.70;;;;;;;0.96;70.94;98940.27;2230713;80;21293;-82
2021/03/23 01:44:40;;;;;;;45.23;24.87;;;;;;;0.97;70.89;98942.37;2230724;79;21563;-82
2021/03/23 01:47:41;;;;;;;52.00;25.17;;;;;;;0.92;70.56;98938.03;2230520;80;21741;-82
2021/03/23 01:50:43;;;;;;;45.67;23.52;;;;;;;0.91;70.68;98934.61;2230699;80;21166;-83
2021/03/23 01:53:44;;;;;;;47.23;24.47;;;;;;;0.90;70.52;98935.55;2230475;79;21329;-83
2021/03/23 01:56:46;;;;;;;42.73;23.10;;;;;;;0.94;70.54;98940.03;2243056;79;21271;-82
2021/03/23 01:59:48;;;;;;;45.80;23.75;;;;;;;0.94;70.37;98936.16;2251766;79;21272;-83
2021/03/23 02:02:49;;;;;;;57.83;24.25;;;;;;;0.95;70.38;98941.67;2251969;79;21308;-83
2021/03/23 02:05:51;;;;;;;44.33;23.80;;;;;;;0.93;70.12;98939.20;2251944;79;21776;-82
2021/03/23 02:08:53;;;;;;;49.80;24.87;;;;;;;0.94;70.18;98933.58;2252118;79;21181;-82
2021/03/23 02:11:54;;;;;;;50.83;24.92;;;;;;;0.95;70.16;98944.25;2251958;79;21732;-83
2021/03/23 02:14:56;;;;;;;49.27;24.45;;;;;;;0.97;69.96;98939.32;2251869;79;21260;-83
2021/03/23 02:17:58;;;;;;;45.23;24.50;;;;;;;0.96;69.99;98938.97;2251727;79;21279;-82
2021/03/23 02:20:59;;;;;;;49.70;25.50;;;;;;;0.96;69.75;98938.97;2251984;79;21299;-82
2021/03/23 02:24:01;;;;;;;49.13;24.63;;;;;;;0.98;69.93;98934.98;2251677;79;21608;-83
2021/03/23 02:27:02;;;;;;;46.83;24.43;;;;;;;1.01;70.00;98940.76;2251974;79;21731;-82
2021/03/23 02:30:04;;;;;;;50.88;24.23;;;;;;;1.04;69.83;98945.67;2251717;79;21284;-83
2021/03/23 02:33:06;;;;;;;41.68;23.62;;;;;;;1.06;69.71;98942.52;2252060;79;21316;-83
2021/03/23 02:36:07;;;;;;;44.70;23.40;;;;;;;1.06;69.76;98947.67;2252213;79;21162;-82
2021/03/23 02:39:09;;;;;;;49.67;24.87;;;;;;;1.08;69.81;98941.09;2251892;79;21303;-83
2021/03/23 02:42:10;;;;;;;44.20;23.12;;;;;;;1.07;69.77;98933.84;2252077;79;21554;-83
2021/03/23 02:45:12;;;;;;;47.00;24.23;;;;;;;1.09;69.75;98937.58;2252087;79;21109;-82
2021/03/23 02:48:14;;;;;;;47.62;25.00;;;;;;;1.06;69.71;98934.77;2251943;79;21584;-82
2021/03/23 02:51:15;;;;;;;50.48;25.48;;;;;;;1.08;69.71;98939.81;2252030;79;21134;-83
2021/03/23 02:54:17;;;;;;;48.52;25.48;;;;;;;1.09;69.72;98931.13;2252025;79;21335;-83
2021/03/23 02:57:18;;;;;;;54.40;25.15;;;;;;;1.11;69.73;98936.55;2243797;78;21311;-83
2021/03/23 03:00:20;;;;;;;52.58;23.40;;;;;;;1.11;69.69;98930.58;2240105;79;21731;-82
2021/03/23 03:03:22;;;;;;;44.88;22.20;;;;;;;1.12;69.75;98937.38;2240508;79;21689;-83
2021/03/23 03:06:23;;;;;;;49.63;24.10;;;;;;;1.13;69.69;98933.86;2240466;79;21177;-82
2021/03/23 03:09:25;;;;;;;48.02;25.32;;;;;;;1.13;69.64;98929.52;2240249;79;21303;-83
2021/03/23 03:12:26;;;;;;;43.98;21.00;;;;;;;1.12;69.63;98929.64;2240477;79;21197;-83
2021/03/23 03:15:28;;;;;;;48.20;25.12;;;;;;;1.14;69.57;98930.34;2240875;79;21285;-82
2021/03/23 03:18:30;;;;;;;48.50;24.70;;;;;;;1.10;69.65;98940.08;2240445;79;21288;-81
2021/03/23 03:21:31;;;;;;;49.05;24.80;;;;;;;1.17;69.58;98937.02;2240446;79;21158;-82
2021/03/23 03:24:33;;;;;;;45.92;23.60;;;;;;;1.18;69.49;98940.77;2240612;79;21316;-82
2021/03/23 03:27:35;;;;;;;48.83;24.15;;;;;;;1.18;69.34;98943.34;2240477;79;21737;-82
2021/03/23 03:30:36;;;;;;;31.25;18.20;;;;;;;1.17;69.41;98940.89;2240875;79;21106;-82
2021/03/23 03:33:38;;;;;;;45.90;23.45;;;;;;;1.14;69.27;98944.05;2240775;79;21142;-82
2021/03/23 03:36:40;;;;;;;40.00;21.35;;;;;;;1.16;69.47;98946.98;2240684;79;21273;-82
2021/03/23 03:39:41;;;;;;;44.53;23.20;;;;;;;1.18;69.28;98949.80;2240690;79;21299;-81
2021/03/23 03:42:43;;;;;;;43.65;21.85;;;;;;;1.19;69.15;98949.33;2240775;79;21166;-82
2021/03/23 03:45:44;;;;;;;44.85;21.23;;;;;;;1.16;69.17;98949.09;2240780;79;21716;-81
2021/03/23 03:48:46;;;;;;;42.70;21.17;;;;;;;1.12;69.06;98952.38;2240797;79;21273;-82
2021/03/23 03:51:47;;;;;;;44.73;22.90;;;;;;;1.12;69.14;98947.22;2240619;79;21268;-82
2021/03/23 03:54:49;;;;;;;36.88;20.20;;;;;;;1.16;69.14;98949.56;2240725;79;21360;-81
2021/03/23 03:57:51;;;;;;;43.83;21.35;;;;;;;1.14;69.06;98941.47;2244538;78;21193;-80
2021/03/23 04:00:52;;;;;;;40.43;20.60;;;;;;;1.14;69.08;98938.89;2244130;79;21102;-82
2021/03/23 04:03:54;;;;;;;42.27;22.37;;;;;;;1.18;69.07;98938.66;2240971;79;21284;-81
2021/03/23 04:06:55;;;;;;;41.33;20.05;;;;;;;1.17;69.01;98937.02;2240693;79;21158;-81
2021/03/23 04:09:57;;;;;;;40.60;20.48;;;;;;;1.16;68.98;98940.06;2240996;79;21301;-81
2021/03/23 04:12:58;;;;;;;41.33;19.42;;;;;;;1.16;69.08;98934.91;2240858;79;21292;-82
2021/03/23 04:16:00;;;;;;;36.23;19.77;;;;;;;1.12;68.97;98931.75;2240626;79;21281;-82
2021/03/23 04:19:02;;;;;;;41.95;18.67;;;;;;;1.10;68.94;98939.25;2244669;79;21114;-81
2021/03/23 04:22:04;;;;;;;34.95;19.35;;;;;;;1.07;68.85;98936.88;2246035;79;21156;-81
2021/03/23 04:25:05;;;;;;;37.30;19.45;;;;;;;1.06;69.04;98942.52;2244078;79;21161;-82
2021/03/23 04:28:07;;;;;;;36.03;17.55;;;;;;;1.08;69.04;98934.66;2240953;79;21308;-81
2021/03/23 04:31:08;;;;;;;38.38;18.00;;;;;;;1.09;68.83;98937.11;2241122;79;21672;-82
2021/03/23 04:34:10;;;;;;;37.78;17.80;;;;;;;1.09;68.95;98938.41;2240704;79;21281;-83
2021/03/23 04:37:12;;;;;;;29.98;16.67;;;;;;;1.12;68.79;98937.38;2240883;79;21288;-82
2021/03/23 04:40:14;;;;;;;35.95;18.35;;;;;;;1.13;68.79;98941.59;2240819;79;21268;-81
2021/03/23 04:43:15;;;;;;;35.80;18.70;;;;;;;1.10;68.58;98947.81;2240738;79;21162;-79
2021/03/23 04:46:17;;;;;;;55.48;22.37;;;;;;;1.10;68.62;98944.41;2240892;79;21720;-80
2021/03/23 04:49:19;;;;;;;49.25;24.43;;;;;;;1.14;68.59;98945.81;2240835;79;21336;-81
2021/03/23 04:52:20;;;;;;;37.08;19.12;;;;;;;1.18;68.60;98942.53;2240480;79;21276;-81
2021/03/23 04:55:22;;;;;;;33.90;18.02;;;;;;;1.20;68.50;98947.95;2240493;79;21581;-81
2021/03/23 04:58:24;;;;;;;28.87;15.32;;;;;;;1.21;68.34;98945.72;2250423;79;21130;-80
2021/03/23 05:01:25;;;;;;;29.63;15.30;;;;;;;1.22;68.38;98947.83;2252106;79;21323;-80
2021/03/23 05:04:27;;;;;;;33.50;16.62;;;;;;;1.25;68.22;98952.27;2252129;79;21145;-80
2021/03/23 05:07:28;;;;;;;33.60;17.35;;;;;;;1.26;68.03;98960.83;2252309;79;21165;-80
2021/03/23 05:10:30;;;;;;;32.58;17.57;;;;;;;1.27;67.95;98962.00;2252108;79;21150;-81
2021/03/23 05:13:31;;;;;;;27.32;14.05;;;;;;;1.28;67.97;98963.67;2251688;79;21256;-82
2021/03/23 05:16:33;;;;;;;31.45;16.02;;;;;;;1.32;68.07;98962.97;2252140;79;21323;-80
2021/03/23 05:19:35;;;;;;;33.45;16.67;;;;;;;1.39;68.02;98961.58;2252511;79;21565;-80
2021/03/23 05:22:36;;;;;;;29.18;15.60;;;;;;;1.45;67.85;98969.30;2251843;79;21554;-81
2021/03/23 05:25:38;;;;;;;28.32;16.25;;;;;;;1.53;67.81;98966.97;2252114;79;21275;-83
2021/03/23 05:28:40;;;;;;;28.35;14.68;;;;;;;1.59;67.53;98969.09;2252048;79;21267;-82
2021/03/23 05:31:41;;;;;;;30.30;15.95;;;;;;;1.61;67.47;98963.34;2251758;79;21172;-80
2021/03/23 05:34:43;;;;;;;29.65;16.30;;;;;;;1.71;67.54;98967.69;2251861;79;21311;-81
2021/03/23 05:37:44;;;;;;;25.92;14.03;;;;;;;1.78;67.29;98973.20;2252041;79;21319;-81
2021/03/23 05:40:46;;;;;;;30.30;15.05;;;;;;;1.83;67.18;98968.53;2252022;79;21279;-81
2021/03/23 05:43:48;;;;;;;26.95;14.40;;;;;;;1.89;67.09;98973.20;2251939;79;21272;-81
2021/03/23 05:46:49;;;;;;;32.60;15.70;;;;;;;1.97;66.94;98969.55;2251881;79;21324;-82
2021/03/23 05:49:52;;;;;;;25.10;14.20;;;;;;;2.01;66.90;98967.55;2251777;79;21304;-83
2021/03/23 05:52:54;;;;;;;30.43;15.08;;;;;;;2.06;66.86;98962.86;2252081;79;21173;-84
2021/03/23 05:55:58;;;;;;;22.35;13.05;;;;;;;2.12;66.75;98957.22;2252162;79;21285;-81
2021/03/23 05:59:00;;;;;;;27.45;14.53;;;;;;;2.17;66.59;98960.25;2240788;78;21289;-82
2021/03/23 06:02:02;;;;;;;29.70;14.63;;;;;;;2.22;66.57;98959.43;2240518;79;21312;-80
2021/03/23 06:05:04;;;;;;;28.77;14.83;;;;;;;2.28;66.56;98957.63;2240413;79;21708;-83
2021/03/23 06:08:06;;;;;;;24.52;13.15;;;;;;;2.39;66.48;98965.86;2240480;79;21315;-81
2021/03/23 06:11:08;;;;;;;31.87;14.78;;;;;;;2.50;65.60;98968.88;2240842;79;21689;-80
2021/03/23 06:14:10;;;;;;;26.20;14.90;;;;;;;2.62;65.81;98968.36;2241074;79;21134;-83
2021/03/23 06:17:11;;;;;;;23.47;12.65;;;;;;;2.70;65.73;98967.28;2240786;79;21300;-81
2021/03/23 06:20:13;;;;;;;27.70;14.47;;;;;;;2.80;65.56;98971.58;2240516;79;21292;-80
2021/03/23 06:23:15;;;;;;;29.10;15.00;;;;;;;2.89;64.70;98973.08;2240513;79;21172;-82
2021/03/23 06:26:22;;;;;;;29.63;15.63;;;;;;;2.90;64.38;98972.95;2240650;79;21463;-81
2021/03/23 06:29:24;;;;;;;28.77;14.95;;;;;;;2.91;64.15;98966.00;2240790;79;21137;-81
2021/03/23 06:32:26;;;;;;;26.23;14.95;;;;;;;2.98;64.64;98973.14;2240775;79;21281;-83
2021/03/23 06:35:27;;;;;;;32.20;15.70;;;;;;;3.06;64.66;98970.75;2240879;79;21669;-81
2021/03/23 06:38:29;;;;;;;37.42;18.45;;;;;;;3.16;64.21;98972.59;2240854;79;21565;-83
2021/03/23 06:41:31;;;;;;;35.35;17.20;;;;;;;3.23;64.26;98966.78;2240873;79;21181;-81
2021/03/23 06:44:33;;;;;;;30.57;16.10;;;;;;;3.34;64.02;98966.71;2241178;79;21173;-80
2021/03/23 06:47:37;;;;;;;31.55;15.88;;;;;;;3.44;63.76;98962.88;2240160;79;21335;-83
2021/03/23 06:50:39;;;;;;;28.10;15.98;;;;;;;3.53;63.63;98966.47;2240449;79;21187;-81
2021/03/23 06:53:40;;;;;;;32.13;15.03;;;;;;;3.58;63.56;98968.21;2243116;79;21130;-81
2021/03/23 06:56:44;;;;;;;33.70;17.55;;;;;;;3.58;63.16;98974.69;2243796;77;21459;-86
2021/03/23 06:59:48;;;;;;;28.62;15.72;;;;;;;3.56;63.00;98979.97;2232548;80;21126;-83
2021/03/23 07:02:50;;;;;;;28.27;16.65;;;;;;;3.61;63.11;98980.41;2230573;80;21288;-82
2021/03/23 07:05:56;;;;;;;31.10;16.27;;;;;;;3.69;62.67;98974.12;2230459;80;21138;-83
2021/03/23 07:09:05;;;;;;;32.33;16.35;;;;;;;3.72;62.06;98975.62;2230024;80;21142;-83
2021/03/23 07:12:09;;;;;;;30.35;16.05;;;;;;;3.75;62.63;98977.97;2230433;79;21276;-83
2021/03/23 07:15:30;;;;;;;35.68;17.57;;;;;;;3.81;62.58;98983.09;2232244;80;21285;-85
2021/03/23 07:18:34;;;;;;;25.48;13.32;;;;;;;3.80;61.92;98987.93;2233504;80;21233;-82
2021/03/23 07:21:35;;;;;;;30.37;15.70;;;;;;;3.81;62.18;98989.09;2202467;80;21315;-83
2021/03/23 07:24:37;;;;;;;27.13;15.40;;;;;;;3.88;62.45;98997.17;2230592;79;21740;-82
2021/03/23 07:27:40;;;;;;;29.27;15.03;;;;;;;3.98;61.96;98989.78;2230178;80;21214;-83
2021/03/23 07:34:03;;;;;;;36.00;16.67;;;;;;;4.44;61.47;98996.66;2230762;79;21186;-83
2021/03/23 07:37:05;;;;;;;25.35;13.10;;;;;;;4.77;61.25;98988.52;2230461;79;21308;-82
2021/03/23 07:40:07;;;;;;;26.27;12.53;;;;;;;4.93;60.02;98997.03;2230687;80;21566;-82
2021/03/23 07:43:09;;;;;;;25.37;12.88;;;;;;;5.08;59.51;98994.86;2230692;80;21197;-82
2021/03/23 07:46:13;;;;;;;24.87;12.75;;;;;;;5.22;59.53;98997.05;2230704;80;21832;-83
2021/03/23 07:49:14;;;;;;;24.12;11.90;;;;;;;5.38;59.16;98986.06;2230485;80;21264;-84
2021/03/23 07:52:16;;;;;;;24.55;12.55;;;;;;;5.51;58.61;98990.98;2230306;79;21304;-84
2021/03/23 07:55:18;;;;;;;19.10;11.85;;;;;;;5.63;58.08;98989.84;2230752;80;21296;-84
2021/03/23 07:58:22;;;;;;;27.22;15.43;;;;;;;5.73;57.18;98995.00;2235915;78;21150;-84
2021/03/23 08:01:36;;;;;;;26.35;16.23;;;;;;;5.78;57.46;98990.22;2240733;79;21709;-84
2021/03/23 08:04:33;;;;;;;22.98;12.65;;;;;;;5.81;56.97;98988.14;2238216;79;21771;-84
2021/03/23 08:07:35;;;;;;;23.45;11.35;;;;;;;5.86;57.85;98998.94;2241012;79;21514;-84
2021/03/23 08:10:36;;;;;;;19.87;10.43;;;;;;;5.81;56.44;99008.11;2240859;79;21145;-84
2021/03/23 08:16:58;;;;;;;23.25;11.75;;;;;;;5.63;57.52;99003.64;2272770;77;22515;-80
2021/03/23 08:20:03;;;;;;;23.75;13.38;;;;;;;5.41;56.77;99003.98;2269056;78;21325;-80
2021/03/23 08:23:07;;;;;;;16.17;9.63;;;;;;;5.36;58.05;99003.57;2268996;78;21789;-80
2021/03/23 08:26:11;;;;;;;15.10;8.90;;;;;;;5.37;56.60;99005.20;2269138;78;21273;-80
2021/03/23 08:29:13;;;;;;;17.52;9.20;;;;;;;5.39;56.09;99000.23;2269345;78;21181;-81
2021/03/23 08:32:15;;;;;;;16.75;10.80;;;;;;;5.36;55.90;99002.27;2269401;78;21289;-81
2021/03/23 08:35:16;;;;;;;15.25;8.80;;;;;;;5.38;55.78;99005.54;2269558;78;21285;-81
2021/03/23 08:38:19;;;;;;;15.03;9.90;;;;;;;5.42;54.91;98997.83;2269609;78;21277;-83
2021/03/23 08:41:21;;;;;;;14.43;9.18;;;;;;;5.52;55.13;99001.22;2269829;78;21587;-81
2021/03/23 08:44:23;;;;;;;16.07;9.38;;;;;;;5.60;54.66;98995.33;2269841;78;21579;-81
2021/03/23 08:47:26;;;;;;;12.55;7.42;;;;;;;5.63;53.84;98998.45;2269467;78;21564;-81
2021/03/23 08:50:28;;;;;;;17.35;8.00;;;;;;;5.72;54.25;99003.28;2269318;78;21289;-81
2021/03/23 08:53:33;;;;;;;10.25;5.87;;;;;;;5.78;55.27;98990.22;2269898;78;21127;-84
2021/03/23 08:56:34;;;;;;;14.85;7.70;;;;;;;5.84;55.36;99015.61;2269073;78;21265;-85
2021/03/23 08:59:36;;;;;;;18.27;8.98;;;;;;;5.73;55.32;98996.30;2268857;78;21257;-81
2021/03/23 09:02:55;;;;;;;16.12;8.15;;;;;;;5.80;56.23;98999.50;2269147;78;21143;-80
2021/03/23 09:05:55;;;;;;;16.23;9.40;;;;;;;5.88;55.36;99003.99;2268676;78;21234;-79
2021/03/23 09:08:57;;;;;;;17.95;10.13;;;;;;;6.01;55.92;98996.70;2269122;78;21178;-79
2021/03/23 09:12:00;;;;;;;10.82;6.53;;;;;;;6.13;55.65;98985.66;2269417;78;21158;-79
2021/03/23 09:15:02;;;;;;;8.98;5.00;;;;;;;6.32;54.99;98992.54;2267519;78;21718;-80
2021/03/23 09:18:08;;;;;;;10.93;7.03;;;;;;;6.34;53.46;99008.81;2262806;78;21167;-84
2021/03/23 09:21:10;;;;;;;13.40;8.23;;;;;;;6.31;53.65;99011.23;2263282;78;21312;-79
2021/03/23 09:24:13;;;;;;;11.25;6.55;;;;;;;6.30;53.78;98999.16;2262544;79;21175;-79
2021/03/23 09:27:15;;;;;;;12.95;7.45;;;;;;;6.25;53.80;99019.59;2262651;79;21313;-79
2021/03/23 09:30:17;;;;;;;10.82;6.55;;;;;;;6.13;54.32;99015.08;2262930;78;21317;-79
2021/03/23 09:33:19;;;;;;;12.20;6.92;;;;;;;6.09;54.50;99014.19;2262657;78;21306;-82
2021/03/23 09:36:24;;;;;;;12.73;6.85;;;;;;;6.16;54.81;99010.87;2262554;78;21285;-79
2021/03/23 09:39:33;;;;;;;13.75;7.03;;;;;;;6.33;54.96;98993.69;2262419;78;21289;-81
2021/03/23 09:42:37;;;;;;;;;;;;;;;6.48;54.68;98988.30;2265281;79;21586;-82
2021/03/23 09:45:42;;;;;;;11.85;6.37;;;;;;;6.64;53.80;99003.27;2262249;79;20295;-80
2021/03/23 09:48:44;;;;;;;11.60;7.12;;;;;;;6.70;53.98;99000.58;2224825;79;21120;-79
2021/03/23 09:51:57;;;;;;;10.32;5.90;;;;;;;6.84;54.31;98979.22;2265575;79;21143;-82
2021/03/23 09:54:58;;;;;;;11.08;6.03;;;;;;;7.02;53.56;98992.23;2250708;79;21119;-78
2021/03/23 09:58:02;;;;;;;8.13;5.87;;;;;;;7.07;53.00;98984.31;2263263;78;21167;-83
2021/03/23 10:01:07;;;;;;;8.10;5.22;;;;;;;7.09;53.37;98988.06;2262274;78;21127;-81
2021/03/23 10:04:16;;;;;;;7.95;5.20;;;;;;;7.13;53.42;98990.69;2259650;79;21159;-82
2021/03/23 10:07:19;;;;;;;7.92;5.78;;;;;;;7.09;52.74;98994.58;2262301;78;21290;-79
2021/03/23 10:10:25;;;;;;;10.70;6.15;;;;;;;7.03;53.54;98987.36;2264176;78;21119;-80
2021/03/23 10:13:37;;;;;;;9.95;6.20;;;;;;;7.07;53.55;98984.31;2267505;79;21159;-83
2021/03/23 10:19:46;;;;;;;9.28;5.00;;;;;;;6.94;53.04;98985.16;2243604;79;21330;-83
2021/03/23 10:26:39;;;;;;;11.25;6.78;;;;;;;7.09;53.83;98976.35;2101999;83;21649;-83
2021/03/23 10:29:52;;;;;;;13.58;7.90;;;;;;;7.21;53.67;98973.83;2139618;83;21641;-82
2021/03/23 10:48:03;;;;;;;;;;;;;;;;;;;;;
2021/03/23 11:02:08;;;;;;;;;;;;;;;;;;;;;
2021/03/23 11:05:23;;;;;;;10.30;6.65;;;;;;;7.56;51.55;98976.02;2184512;81;21625;-81
2021/03/23 11:08:25;;;;;;;24.77;8.85;;;;;;;7.64;51.66;98975.59;2184750;81;21820;-80
2021/03/23 11:11:26;;;;;;;15.20;8.58;;;;;;;7.86;52.74;98963.83;2184768;81;21288;-79
2021/03/23 11:14:28;;;;;;;13.32;9.05;;;;;;;8.10;51.84;99007.92;2184718;81;21315;-80
2021/03/23 11:17:30;;;;;;;17.10;9.73;;;;;;;8.21;52.30;98975.02;2184885;81;21308;-84
2021/03/23 11:20:36;;;;;;;14.70;9.48;;;;;;;8.31;52.00;98973.09;2184803;81;21812;-84
2021/03/23 11:23:40;;;;;;;11.55;8.90;;;;;;;8.45;51.49;98985.58;2184668;81;21159;-79
2021/03/23 11:26:44;;;;;;;12.75;8.58;;;;;;;8.59;51.16;98989.84;2184505;81;21331;-79
2021/03/23 11:29:47;;;;;;;15.40;9.18;;;;;;;8.55;51.27;98981.03;2184289;81;21336;-80
2021/03/23 11:33:06;;;;;;;;;;;;;;;;;;;;;
2021/03/23 11:39:54;;;;;;;14.53;7.47;;;;;;;8.88;49.92;98984.20;2189912;81;21142;-86
2021/03/23 11:46:35;;;;;;;12.37;8.60;;;;;;;9.03;48.83;98964.27;2160010;81;21650;-84
2021/03/23 11:49:40;;;;;;;19.67;9.63;;;;;;;9.29;49.46;98967.52;2190465;81;21131;-82
2021/03/23 11:52:46;;;;;;;13.62;8.35;;;;;;;9.45;50.16;98963.27;2188486;81;21103;-79
2021/03/23 11:59:20;;;;;;;10.72;6.70;;;;;;;9.54;49.07;98958.34;2177180;81;21210;-86
2021/03/23 12:02:24;;;;;;;11.10;7.30;;;;;;;9.53;47.53;98971.09;2191073;81;21296;-85
2021/03/23 12:05:37;;;;;;;;;;;;;;;;;;;;;
2021/03/23 12:08:35;;;;;;;8.68;6.25;;;;;;;9.44;47.44;98968.17;2186098;81;21198;-88
2021/03/23 12:11:40;;;;;;;7.72;5.58;;;;;;;9.52;47.22;98988.58;2190546;81;21158;-87
2021/03/23 12:14:45;;;;;;;12.18;7.80;;;;;;;9.51;47.43;98971.27;2190169;81;21297;-86
2021/03/23 12:18:10;;;;;;;;;;;;;;;;;;;;;
2021/03/23 12:21:07;;;;;;;9.60;6.30;;;;;;;9.67;46.31;98999.16;2187906;81;21653;-84
2021/03/23 12:24:22;;;;;;;9.80;6.70;;;;;;;9.54;47.18;98982.69;2190355;81;21331;-85
2021/03/23 12:27:28;;;;;;;12.45;8.10;;;;;;;9.57;47.98;98974.50;2188029;81;21606;-85
2021/03/23 12:30:28;;;;;;;9.90;6.25;;;;;;;9.65;47.98;98985.44;2188602;81;22267;-83
2021/03/23 12:33:34;;;;;;;8.90;6.15;;;;;;;9.54;46.92;98983.18;2190204;81;21324;-83
2021/03/23 12:36:42;;;;;;;9.98;7.37;;;;;;;9.52;47.54;98980.73;2130415;81;21163;-84
2021/03/23 12:39:46;;;;;;;8.20;6.33;;;;;;;9.53;47.58;98992.02;2190020;81;21321;-84
2021/03/23 12:42:58;;;;;;;8.40;5.75;;;;;;;9.52;48.20;98983.84;2190149;81;21186;-82
2021/03/23 12:46:18;;;;;;;;;;;;;;;;;;;;;
2021/03/23 12:49:19;;;;;;;8.95;6.40;;;;;;;9.38;47.47;98987.44;2188403;81;22162;-86
2021/03/23 12:52:40;;;;;;;;;;;;;;;;;;;;;
2021/03/23 12:55:33;;;;;;;12.03;6.42;;;;;;;9.48;48.40;98982.53;2182481;81;21312;-85
2021/03/23 13:06:44;;;;;;;11.78;6.62;;;;;;;9.73;47.89;98994.58;2272895;77;24797;-86
2021/03/23 13:09:48;;;;;;;9.68;6.85;;;;;;;9.58;47.78;98991.81;2264987;79;21263;-84
2021/03/23 13:12:50;;;;;;;9.08;6.72;;;;;;;9.47;48.51;98996.09;2272749;78;21273;-85
2021/03/23 13:15:53;;;;;;;8.40;5.75;;;;;;;9.36;48.34;98989.41;2264644;79;21146;-85
2021/03/23 13:19:00;;;;;;;10.88;7.08;;;;;;;9.19;48.37;98989.09;2271250;78;21195;-85
2021/03/23 13:22:26;;;;;;;16.80;7.53;;;;;;;9.10;49.06;98985.66;2264660;79;21143;-87
2021/03/23 13:25:28;;;;;;;10.88;6.53;;;;;;;9.15;49.20;98990.41;2269023;78;21138;-87
2021/03/23 13:28:32;;;;;;;9.80;7.40;;;;;;;9.28;49.00;98996.44;2258690;79;21566;-84
2021/03/23 13:31:36;;;;;;;10.25;6.62;;;;;;;9.40;49.27;98985.96;2269260;78;21602;-87
2021/03/23 13:34:38;;;;;;;8.95;6.22;;;;;;;9.60;48.79;98983.80;2264218;79;21744;-86
2021/03/23 13:37:40;;;;;;;10.75;7.33;;;;;;;9.63;48.52;98986.92;2269738;78;21146;-86
2021/03/23 13:40:42;;;;;;;9.75;7.67;;;;;;;9.69;48.40;98982.80;2264436;79;21281;-87
2021/03/23 13:43:43;;;;;;;8.33;6.87;;;;;;;9.74;49.05;98986.24;2262830;79;21305;-84
2021/03/23 13:46:45;;;;;;;16.35;8.15;;;;;;;9.69;48.42;98979.73;2264721;78;21717;-82
2021/03/23 13:49:47;;;;;;;8.25;6.00;;;;;;;9.59;48.77;98985.61;2269541;78;21737;-84
2021/03/23 13:52:49;;;;;;;7.35;6.30;;;;;;;9.55;48.93;98987.42;2265744;79;21312;-83
2021/03/23 13:55:51;;;;;;;9.88;6.55;;;;;;;9.51;48.21;98988.27;2269921;78;21337;-85
2021/03/23 13:58:52;;;;;;;13.30;7.78;;;;;;;9.48;48.14;98978.61;2264047;79;21305;-84
2021/03/23 14:01:54;;;;;;;11.45;7.33;;;;;;;9.40;48.19;98976.81;2268712;78;21737;-85
2021/03/23 14:04:58;;;;;;;12.25;7.12;;;;;;;9.36;48.22;98980.75;2259138;79;21590;-85
2021/03/23 14:19:33;;;;;;;;;;;;;;;;;;;;;
2021/03/23 14:23:04;;;;;;;12.98;7.10;;;;;;;9.41;48.71;98979.75;2305836;77;22992;-84
2021/03/23 14:26:08;;;;;;;11.12;8.03;;;;;;;9.40;48.60;98980.73;2302413;77;21121;-85
2021/03/23 14:29:11;;;;;;;13.05;7.72;;;;;;;9.51;48.12;98992.18;2302504;77;21590;-83
2021/03/23 14:32:13;;;;;;;14.30;7.87;;;;;;;9.51;48.67;98974.34;2302938;77;21318;-83
2021/03/23 14:35:15;;;;;;;13.88;9.70;;;;;;;9.42;48.27;98985.33;2302417;77;21631;-88
2021/03/23 14:38:17;;;;;;;16.62;9.40;;;;;;;9.28;48.60;98986.80;2303050;77;21274;-86
2021/03/23 14:41:25;;;;;;;16.00;11.30;;;;;;;9.19;48.93;98979.13;2302210;77;21655;-84
2021/03/23 14:44:24;;;;;;;18.15;10.82;;;;;;;9.12;48.97;98985.49;2301174;77;21117;-84
2021/03/23 14:47:29;;;;;;;15.48;9.73;;;;;;;9.07;48.74;98979.95;2302412;77;21287;-81
2021/03/23 14:50:31;;;;;;;17.92;8.95;;;;;;;8.98;48.99;98978.33;2302000;77;21129;-84
2021/03/23 14:53:33;;;;;;;20.60;12.10;;;;;;;8.89;49.37;98974.08;2302743;77;21298;-85
2021/03/23 14:56:34;;;;;;;13.25;8.58;;;;;;;8.83;49.79;98978.95;2302270;77;21160;-87
2021/03/23 14:59:36;;;;;;;17.62;10.15;;;;;;;8.74;49.60;98987.75;2302264;77;21247;-86
2021/03/23 15:02:38;;;;;;;15.88;9.95;;;;;;;8.67;49.95;99001.11;2302487;77;21295;-86
2021/03/23 15:05:40;;;;;;;21.30;9.55;;;;;;;8.61;50.08;98992.64;2302434;77;21290;-86
2021/03/23 15:08:41;;;;;;;17.80;10.53;;;;;;;8.61;50.25;98990.03;2302465;77;21153;-86
2021/03/23 15:11:43;;;;;;;11.30;9.30;;;;;;;8.59;50.24;98994.56;2302454;77;21279;-86
2021/03/23 15:14:44;;;;;;;13.10;8.25;;;;;;;8.55;50.54;98995.87;2302965;77;21282;-86
2021/03/23 15:17:46;;;;;;;15.53;9.85;;;;;;;8.50;50.67;99010.72;2302235;77;21264;-87
2021/03/23 15:20:48;;;;;;;11.12;7.35;;;;;;;8.42;50.93;99001.56;2300519;77;21283;-86
2021/03/23 15:24:01;;;;;;;10.55;6.85;;;;;;;8.35;51.26;99008.38;2292945;77;21671;-86
2021/03/23 15:26:53;;;;;;;13.22;8.30;;;;;;;8.29;51.51;99007.66;2284655;77;21801;-87
2021/03/23 15:29:54;;;;;;;12.13;7.75;;;;;;;8.21;51.70;99013.66;2292278;77;21141;-87
2021/03/23 15:33:09;;;;;;;9.93;7.65;;;;;;;8.16;51.83;99012.52;2295104;78;21254;-91
2021/03/23 15:36:13;;;;;;;10.80;7.60;;;;;;;8.10;51.98;99003.52;2294706;77;21082;-92
2021/03/23 15:39:15;;;;;;;11.18;7.45;;;;;;;8.06;52.08;99007.42;2292157;78;21117;-90